createdAt,value
2023-03-07T00:01:26.099Z,3.83
2023-03-07T00:04:29.326Z,3.90
2023-03-07T00:07:32.869Z,4.38
2023-03-07T00:10:37.453Z,3.83
2023-03-07T00:13:40.820Z,4.20
2023-03-07T00:16:44.115Z,4.50
2023-03-07T00:19:47.390Z,4.45
2023-03-07T00:22:50.784Z,5.00
2023-03-07T00:26:02.213Z,4.78
2023-03-07T00:29:05.537Z,5.57
2023-03-07T00:32:09.170Z,5.65
2023-03-07T00:35:12.461Z,5.68
2023-03-07T00:38:15.893Z,6.32
2023-03-07T00:41:21.232Z,5.90
2023-03-07T00:44:25.278Z,5.70
2023-03-07T00:47:28.588Z,5.97
2023-03-07T00:50:32.148Z,7.15
2023-03-07T00:53:35.894Z,5.88
2023-03-07T00:56:40.819Z,6.85
2023-03-07T00:59:44.238Z,7.03
2023-03-07T01:02:47.776Z,5.93
2023-03-07T01:05:51.370Z,7.38
2023-03-07T01:08:55.293Z,7.28
2023-03-07T01:12:00.189Z,6.15
2023-03-07T01:15:05.214Z,7.47
2023-03-07T01:18:09.474Z,7.88
2023-03-07T01:21:14.257Z,7.05
2023-03-07T01:24:18.241Z,7.18
2023-03-07T01:27:22.896Z,7.78
2023-03-07T01:30:26.344Z,7.10
2023-03-07T01:33:29.977Z,7.78
2023-03-07T01:36:34.210Z,9.48
2023-03-07T01:39:41.083Z,8.90
2023-03-07T01:42:47.935Z,8.35
2023-03-07T01:46:26.740Z,7.90
2023-03-07T01:49:34.021Z,8.23
2023-03-07T01:52:41.526Z,8.52
2023-03-07T01:55:46.315Z,6.90
2023-03-07T01:58:55.993Z,8.18
2023-03-07T02:02:00.767Z,7.60
2023-03-07T02:05:06.073Z,8.75
2023-03-07T02:08:12.188Z,7.30
2023-03-07T02:11:15.776Z,7.00
2023-03-07T02:14:20.481Z,7.63
2023-03-07T02:17:24.673Z,7.32
2023-03-07T02:20:31.797Z,7.95
2023-03-07T02:23:40.425Z,8.75
2023-03-07T02:26:49.128Z,7.47
2023-03-07T02:29:52.624Z,7.43
2023-03-07T02:32:56.742Z,7.47
2023-03-07T02:36:03.599Z,7.68
2023-03-07T02:39:08.939Z,6.88
2023-03-07T02:42:15.803Z,6.35
2023-03-07T02:45:25.317Z,6.60
2023-03-07T02:48:28.836Z,5.80
2023-03-07T02:51:32.523Z,6.38
2023-03-07T02:54:36.090Z,6.50
2023-03-07T02:57:40.747Z,6.20
2023-03-07T03:00:44.171Z,6.03
2023-03-07T03:03:47.538Z,5.53
2023-03-07T03:06:51.484Z,5.85
2023-03-07T03:09:54.810Z,6.68
2023-03-07T03:12:59.772Z,6.07
2023-03-07T03:16:04.036Z,5.72
2023-03-07T03:19:08.040Z,5.88
2023-03-07T03:22:11.772Z,5.72
2023-03-07T03:25:22.398Z,6.05
2023-03-07T03:28:28.993Z,6.10
2023-03-07T03:31:33.095Z,6.88
2023-03-07T03:34:37.980Z,6.25
2023-03-07T03:37:41.454Z,6.88
2023-03-07T03:40:45.237Z,5.63
2023-03-07T03:43:50.386Z,5.72
2023-03-07T03:46:53.930Z,5.80
2023-03-07T03:49:59.510Z,5.60
2023-03-07T03:53:03.594Z,5.85
2023-03-07T03:56:08.497Z,5.80
2023-03-07T03:59:13.164Z,5.68
2023-03-07T04:02:16.475Z,6.35
2023-03-07T04:05:19.837Z,5.60
2023-03-07T04:08:23.326Z,5.30
2023-03-07T04:11:27.181Z,5.13
2023-03-07T04:14:32.061Z,5.70
2023-03-07T04:17:35.756Z,5.32
2023-03-07T04:20:40.264Z,5.30
2023-03-07T04:23:44.303Z,4.40
2023-03-07T04:26:48.868Z,4.50
2023-03-07T04:29:53.689Z,5.18
2023-03-07T04:32:58.332Z,5.00
2023-03-07T04:36:01.648Z,5.20
2023-03-07T04:39:05.262Z,4.47
2023-03-07T04:42:08.996Z,5.13
2023-03-07T04:45:15.339Z,4.13
2023-03-07T04:48:18.701Z,4.57
2023-03-07T04:51:22.272Z,4.38
2023-03-07T04:54:26.439Z,4.32
2023-03-07T04:57:29.976Z,4.57
2023-03-07T05:00:34.765Z,3.83
2023-03-07T05:03:38.874Z,3.70
2023-03-07T05:06:42.995Z,4.03
2023-03-07T05:09:46.641Z,3.90
2023-03-07T05:12:51.161Z,4.10
2023-03-07T05:15:57.470Z,3.47
2023-03-07T05:19:01.681Z,3.80
2023-03-07T05:22:07.544Z,2.92
2023-03-07T05:25:12.034Z,2.78
2023-03-07T05:28:16.855Z,2.72
2023-03-07T05:31:22.307Z,2.72
2023-03-07T05:34:25.785Z,2.55
2023-03-07T05:37:29.093Z,2.40
2023-03-07T05:40:32.578Z,2.42
2023-03-07T05:43:36.839Z,1.92
2023-03-07T05:46:41.634Z,2.38
2023-03-07T05:49:45.310Z,2.15
2023-03-07T05:52:50.244Z,2.08
2023-03-07T05:55:53.772Z,1.60
2023-03-07T05:58:57.513Z,1.70
2023-03-07T06:02:03.898Z,1.73
2023-03-07T06:05:13.288Z,1.45
2023-03-07T06:08:23.485Z,1.30
2023-03-07T06:11:28.133Z,1.45
2023-03-07T06:14:32.239Z,1.67
2023-03-07T06:17:37.868Z,1.45
2023-03-07T06:20:42.223Z,1.48
2023-03-07T06:23:46.244Z,1.20
2023-03-07T06:26:54.257Z,1.05
2023-03-07T06:30:01.193Z,1.00
2023-03-07T06:33:08.957Z,1.08
2023-03-07T06:36:13.481Z,1.40
2023-03-07T06:39:20.998Z,0.80
2023-03-07T06:42:26.548Z,1.67
2023-03-07T06:45:30.668Z,1.10
2023-03-07T06:48:35.864Z,1.17
2023-03-07T06:51:41.686Z,1.00
2023-03-07T06:54:45.383Z,1.10
2023-03-07T06:57:48.954Z,0.85
2023-03-07T07:00:52.493Z,0.80
2023-03-07T07:03:57.589Z,1.15
2023-03-07T07:07:03.096Z,1.02
2023-03-07T07:14:17.878Z,0.80
2023-03-07T07:17:39.857Z,1.20
2023-03-07T07:20:45.483Z,0.52
2023-03-07T07:23:49.425Z,0.70
2023-03-07T07:26:52.794Z,0.82
2023-03-07T07:29:56.146Z,0.70
2023-03-07T07:32:59.946Z,0.80
2023-03-07T07:36:05.319Z,0.70
2023-03-07T07:39:12.868Z,1.00
2023-03-07T07:42:19.097Z,0.95
2023-03-07T07:45:42.716Z,0.70
2023-03-07T07:48:50.628Z,1.45
2023-03-07T07:51:56.431Z,0.93
2023-03-07T07:55:00.159Z,0.88
2023-03-07T07:58:03.772Z,0.73
2023-03-07T08:01:14.088Z,1.08
2023-03-07T08:04:18.389Z,1.48
2023-03-07T08:07:23.237Z,0.60
2023-03-07T08:10:26.658Z,1.60
2023-03-07T08:13:30.089Z,0.80
2023-03-07T08:16:33.622Z,0.73
2023-03-07T08:19:37.197Z,1.13
2023-03-07T08:22:43.565Z,0.88
2023-03-07T08:25:47.351Z,1.13
2023-03-07T08:28:50.757Z,0.68
2023-03-07T08:31:55.151Z,0.85
2023-03-07T08:35:01.734Z,1.05
2023-03-07T08:38:06.846Z,1.05
2023-03-07T08:41:11.406Z,0.75
2023-03-07T08:44:14.725Z,1.20
2023-03-07T08:47:18.328Z,0.77
2023-03-07T08:50:22.136Z,0.80
2023-03-07T08:53:27.043Z,0.90
2023-03-07T08:56:30.686Z,0.57
2023-03-07T08:59:34.063Z,1.17
2023-03-07T09:02:37.707Z,0.73
2023-03-07T09:05:41.255Z,1.02
2023-03-07T09:08:47.226Z,1.20
2023-03-07T09:11:51.156Z,2.15
2023-03-07T09:14:55.025Z,0.70
2023-03-07T09:17:58.779Z,0.90
2023-03-07T09:21:02.752Z,0.70
2023-03-07T09:24:07.758Z,0.73
2023-03-07T09:27:12.434Z,1.13
2023-03-07T09:30:16.920Z,0.68
2023-03-07T09:33:36.566Z,0.60
2023-03-07T09:37:01.140Z,0.57
2023-03-07T09:40:08.160Z,1.05
2023-03-07T09:43:18.284Z,0.90
2023-03-07T09:46:44.176Z,0.57
2023-03-07T09:49:48.776Z,1.17
2023-03-07T09:52:57.733Z,0.75
2023-03-07T09:56:56.206Z,1.08
2023-03-07T10:00:06.520Z,0.82
2023-03-07T10:07:18.278Z,0.98
2023-03-07T10:10:24.158Z,0.75
2023-03-07T10:14:17.138Z,0.88
2023-03-07T10:18:11.445Z,0.98
2023-03-07T10:21:19.674Z,0.65
2023-03-07T10:24:33.044Z,0.60
2023-03-07T10:27:38.415Z,0.93
2023-03-07T10:30:41.821Z,0.90
2023-03-07T10:33:47.673Z,1.15
2023-03-07T10:37:06.555Z,0.93
2023-03-07T10:40:17.029Z,0.82
2023-03-07T10:43:24.901Z,1.30
2023-03-07T10:46:30.110Z,0.90
2023-03-07T10:49:36.152Z,1.30
2023-03-07T10:52:41.313Z,0.65
2023-03-07T10:55:46.145Z,0.80
2023-03-07T10:59:05.174Z,0.95
2023-03-07T11:02:27.926Z,0.95
2023-03-07T11:05:33.927Z,0.80
2023-03-07T11:08:37.754Z,1.25
2023-03-07T11:11:41.121Z,0.60
2023-03-07T11:14:48.330Z,1.15
2023-03-07T11:17:52.242Z,0.90
2023-03-07T11:20:57.250Z,0.70
2023-03-07T11:24:01.527Z,0.90
2023-03-07T11:27:05.401Z,1.23
2023-03-07T11:30:10.408Z,0.77
2023-03-07T11:33:17.405Z,0.98
2023-03-07T11:36:26.034Z,0.90
2023-03-07T11:39:33.786Z,0.63
2023-03-07T11:42:40.709Z,1.15
2023-03-07T11:45:49.715Z,0.70
2023-03-07T11:49:01.653Z,0.70
2023-03-07T11:52:11.290Z,0.77
2023-03-07T11:55:21.422Z,1.00
2023-03-07T11:58:47.423Z,0.70
2023-03-07T12:01:55.413Z,0.95
2023-03-07T12:05:06.756Z,1.10
2023-03-07T12:08:28.288Z,0.88
2023-03-07T12:11:42.539Z,1.00
2023-03-07T12:14:50.407Z,1.10
2023-03-07T12:18:03.528Z,0.80
2023-03-07T12:21:16.459Z,0.80
2023-03-07T12:24:23.256Z,0.85
2023-03-07T12:27:32.048Z,0.98
2023-03-07T12:30:39.005Z,1.00
2023-03-07T12:33:48.964Z,1.08
2023-03-07T12:36:55.784Z,1.20
2023-03-07T12:40:01.773Z,0.70
2023-03-07T12:43:12.886Z,1.20
2023-03-07T12:46:19.963Z,1.33
2023-03-07T12:49:26.054Z,0.60
2023-03-07T12:52:36.119Z,0.82
2023-03-07T12:55:41.174Z,0.90
2023-03-07T12:58:49.152Z,0.90
2023-03-07T13:01:54.531Z,0.82
2023-03-07T13:04:59.968Z,0.90
2023-03-07T13:08:04.024Z,0.63
2023-03-07T13:11:07.597Z,0.60
2023-03-07T13:14:38.021Z,0.95
2023-03-07T13:17:58.521Z,0.70
2023-03-07T13:21:08.978Z,1.00
2023-03-07T13:24:30.931Z,0.98
2023-03-07T13:27:43.892Z,0.50
2023-03-07T13:31:11.745Z,0.55
2023-03-07T13:34:43.871Z,0.65
2023-03-07T13:37:53.692Z,0.80
2023-03-07T13:41:00.297Z,1.55
2023-03-07T13:44:04.313Z,1.10
2023-03-07T13:47:33.891Z,0.60
2023-03-07T13:50:40.605Z,0.75
2023-03-07T13:53:45.458Z,1.00
2023-03-07T13:56:48.899Z,1.00
2023-03-07T13:59:52.493Z,0.88
2023-03-07T14:02:58.381Z,0.55
2023-03-07T14:06:04.449Z,0.75
2023-03-07T14:09:09.334Z,0.63
2023-03-07T14:12:17.914Z,0.63
2023-03-07T14:15:25.172Z,0.50
2023-03-07T14:18:35.975Z,0.60
2023-03-07T14:21:44.899Z,0.68
2023-03-07T14:24:54.918Z,0.77
2023-03-07T14:27:59.555Z,0.57
2023-03-07T14:31:05.553Z,0.75
2023-03-07T14:34:18.771Z,0.60
2023-03-07T14:37:23.938Z,0.75
2023-03-07T14:40:31.526Z,0.40
2023-03-07T14:43:41.043Z,0.73
2023-03-07T14:46:51.620Z,0.35
2023-03-07T14:50:00.278Z,0.60
2023-03-07T14:53:05.641Z,0.60
2023-03-07T14:56:09.738Z,0.70
2023-03-07T14:59:27.770Z,0.47
2023-03-07T15:02:32.198Z,0.50
2023-03-07T15:05:37.833Z,0.60
2023-03-07T15:08:41.333Z,0.40
2023-03-07T15:11:46.590Z,0.38
2023-03-07T15:14:53.671Z,0.65
2023-03-07T15:18:00.792Z,0.50
2023-03-07T15:21:30.478Z,0.50
2023-03-07T15:24:46.200Z,0.80
2023-03-07T15:27:49.881Z,0.60
2023-03-07T15:30:53.944Z,0.60
2023-03-07T15:34:10.999Z,0.40
2023-03-07T15:37:27.371Z,0.57
2023-03-07T15:40:32.108Z,0.60
2023-03-07T15:43:36.827Z,0.73
2023-03-07T15:46:41.920Z,0.50
2023-03-07T15:49:46.449Z,0.40
2023-03-07T15:52:52.892Z,0.70
2023-03-07T15:55:58.870Z,0.60
2023-03-07T15:59:03.943Z,0.60
2023-03-07T16:02:26.346Z,0.52
2023-03-07T16:05:32.816Z,0.88
2023-03-07T16:08:37.412Z,0.57
2023-03-07T16:11:42.472Z,0.75
2023-03-07T16:14:46.373Z,0.60
2023-03-07T16:17:53.187Z,0.60
2023-03-07T16:20:56.697Z,0.57
2023-03-07T16:24:01.452Z,0.80
2023-03-07T16:27:04.906Z,0.50
2023-03-07T16:30:14.210Z,0.50
2023-03-07T16:33:17.649Z,0.45
2023-03-07T16:36:23.796Z,0.52
2023-03-07T16:39:38.162Z,0.50
2023-03-07T16:42:50.706Z,0.68
2023-03-07T16:45:57.189Z,0.63
2023-03-07T16:49:00.893Z,0.65
2023-03-07T16:52:07.768Z,1.33
2023-03-07T16:55:13.743Z,0.28
2023-03-07T16:58:21.489Z,1.33
2023-03-07T17:01:24.933Z,1.17
2023-03-07T17:04:28.581Z,1.50
2023-03-07T17:07:40.765Z,1.92
2023-03-07T17:10:52.181Z,1.27
2023-03-07T17:13:56.188Z,1.90
2023-03-07T17:17:00.586Z,0.90
2023-03-07T17:20:05.530Z,0.80
2023-03-07T17:23:09.177Z,0.77
2023-03-07T17:26:18.550Z,0.60
2023-03-07T17:29:25.411Z,0.57
2023-03-07T17:32:28.790Z,0.73
2023-03-07T17:35:33.119Z,0.70
2023-03-07T17:38:36.542Z,0.40
2023-03-07T17:41:41.375Z,0.70
2023-03-07T17:44:44.683Z,0.50
2023-03-07T17:47:51.502Z,0.52
2023-03-07T17:50:54.935Z,0.52
2023-03-07T17:53:58.480Z,0.65
2023-03-07T17:57:04.023Z,0.90
2023-03-07T18:00:12.513Z,0.73
2023-03-07T18:03:15.947Z,0.50
2023-03-07T18:06:21.140Z,0.70
2023-03-07T18:09:26.353Z,0.60
2023-03-07T18:12:31.595Z,0.40
2023-03-07T18:15:37.080Z,0.60
2023-03-07T18:18:58.299Z,0.38
2023-03-07T18:22:03.488Z,0.60
2023-03-07T18:25:08.858Z,0.70
2023-03-07T18:28:14.574Z,0.40
2023-03-07T18:31:18.967Z,0.50
2023-03-07T18:34:24.643Z,0.68
2023-03-07T18:37:29.245Z,0.57
2023-03-07T18:40:32.838Z,0.90
2023-03-07T18:43:37.876Z,0.93
2023-03-07T18:46:42.210Z,0.90
2023-03-07T18:49:46.134Z,0.85
2023-03-07T18:52:50.026Z,0.63
2023-03-07T18:55:54.745Z,0.93
2023-03-07T18:59:02.111Z,0.70
2023-03-07T19:02:07.102Z,0.90
2023-03-07T19:05:12.787Z,0.65
2023-03-07T19:08:16.956Z,1.02
2023-03-07T19:11:27.443Z,1.10
2023-03-07T19:14:33.214Z,1.30
2023-03-07T19:17:40.419Z,1.30
2023-03-07T19:21:00.064Z,1.08
2023-03-07T19:24:14.973Z,0.90
2023-03-07T19:27:24.406Z,0.88
2023-03-07T19:31:36.823Z,0.70
2023-03-07T19:35:12.481Z,1.15
2023-03-07T19:43:31.736Z,0.68
2023-03-07T19:47:11.689Z,1.00
2023-03-07T19:50:15.298Z,0.85
2023-03-07T19:53:19.148Z,0.70
2023-03-07T19:56:23.391Z,0.68
2023-03-07T19:59:26.822Z,0.80
2023-03-07T20:02:33.767Z,0.70
2023-03-07T20:05:41.495Z,1.02
2023-03-07T20:08:44.971Z,0.93
2023-03-07T20:11:48.366Z,1.00
2023-03-07T20:14:51.872Z,1.10
2023-03-07T20:17:56.731Z,1.05
2023-03-07T20:21:04.063Z,0.73
2023-03-07T20:24:09.136Z,1.10
2023-03-07T20:27:13.717Z,1.10
2023-03-07T20:30:17.372Z,0.93
2023-03-07T20:33:22.857Z,0.93
2023-03-07T20:36:26.776Z,0.85
2023-03-07T20:39:30.150Z,1.00
2023-03-07T20:42:33.843Z,1.15
2023-03-07T20:45:37.238Z,1.00
2023-03-07T20:48:43.092Z,1.00
2023-03-07T20:51:48.612Z,0.95
2023-03-07T20:54:51.956Z,0.98
2023-03-07T20:57:55.332Z,1.10
2023-03-07T21:00:58.675Z,0.70
2023-03-07T21:04:06.348Z,0.82
2023-03-07T21:07:27.258Z,1.42
2023-03-07T21:10:30.993Z,1.25
2023-03-07T21:13:36.017Z,1.10
2023-03-07T21:16:39.538Z,1.20
2023-03-07T21:19:45.514Z,1.15
2023-03-07T21:22:48.939Z,1.15
2023-03-07T21:25:52.344Z,1.38
2023-03-07T21:28:56.718Z,1.23
2023-03-07T21:32:00.164Z,1.13
2023-03-07T21:35:05.234Z,1.52
2023-03-07T21:38:08.913Z,1.20
2023-03-07T21:41:12.733Z,1.55
2023-03-07T21:44:16.357Z,1.10
2023-03-07T21:47:20.096Z,0.75
2023-03-07T21:50:25.085Z,1.10
2023-03-07T21:53:28.903Z,0.95
2023-03-07T21:56:32.262Z,1.35
2023-03-07T21:59:36.409Z,0.82
2023-03-07T22:02:39.854Z,1.13
2023-03-07T22:05:44.960Z,1.00
2023-03-07T22:08:48.421Z,1.00
2023-03-07T22:11:51.836Z,0.80
2023-03-07T22:14:55.425Z,0.85
2023-03-07T22:17:58.841Z,0.90
2023-03-07T22:21:38.013Z,1.35
2023-03-07T22:25:24.156Z,1.05
2023-03-07T22:28:27.998Z,1.75
2023-03-07T22:31:32.450Z,1.15
2023-03-07T22:34:36.012Z,1.27
2023-03-07T22:37:41.798Z,1.30
2023-03-07T22:40:46.602Z,1.70
2023-03-07T22:43:49.962Z,1.30
2023-03-07T22:46:53.434Z,1.02
2023-03-07T22:49:59.814Z,1.42
2023-03-07T22:53:03.648Z,1.10
2023-03-07T22:56:14.703Z,0.85
2023-03-07T22:59:18.066Z,1.00
2023-03-07T23:02:22.036Z,0.63
2023-03-07T23:05:25.903Z,0.90
2023-03-07T23:08:30.136Z,0.60
2023-03-07T23:11:35.913Z,0.68
2023-03-07T23:14:39.993Z,0.80
2023-03-07T23:17:44.562Z,0.90
2023-03-07T23:20:48.448Z,1.10
2023-03-07T23:23:54.832Z,0.70
2023-03-07T23:27:00.131Z,0.75
2023-03-07T23:30:04.106Z,1.08
2023-03-07T23:33:08.084Z,1.30
2023-03-07T23:36:12.903Z,1.02
2023-03-07T23:39:17.614Z,0.73
2023-03-07T23:42:23.113Z,1.05
2023-03-07T23:45:27.327Z,0.98
2023-03-07T23:48:31.376Z,0.80
2023-03-07T23:51:35.502Z,1.10
2023-03-07T23:54:38.822Z,0.90
2023-03-07T23:57:43.558Z,0.82
